logo
Search for airport 
image banner adimage banner adimage banner ad
image banner ad

YSRT - Surat

Located in Surat, Australia

ICAO - YSRT, IATA -

Data provided by Airmate  

General information

Coordinates: S27°9'34" E149°4'34"
Elevation is 830 feet MSL.
Magnetic variation is 10° East
View others Airports in Queensland

Operational data

Special qualification required
Current time UTC:
Current local time:
Weather at : - ( 0 km )
METAR: KRSV 220324Z AUTO 00000KT 10SM CLR 23/21 A3011 RMK AO2 TSNO
View NOTAMs / SUP AIP / TFR affecting this airport [VIEW]
Communications frequencies: [VIEW]

Runways:

RWY identifierQFULength (ft)Width (ft)SurfaceLDA (ft)
0835260B
2635260B
25264°332647ASPH
0784°332647ASPH

Airport contact information

Address: Surat Australia

Satellite view of YSRT